Time;durP1;ratioP1;P1;durP2;ratioP2;P2;SDS_P1;SDS_P2;PMS_P1;PMS_P2;Temp;Humidity;BMP_temperature;BMP_pressure;BME280_temperature;BME280_humidity;BME280_pressure;Samples;Min_cycle;Max_cycle;Signal;HPM_P1;HPM_P2
2023/01/30 00:01:38;;;;;;;14.02;10.98;;;;;;;;;;4920484;29;20032;-68
2023/01/30 00:04:03;;;;;;;14.35;10.98;;;;;;;;;;4937922;29;20044;-69
2023/01/30 00:06:29;;;;;;;12.60;9.90;;;;;;;;;;4937806;29;20048;-70
2023/01/30 00:08:54;;;;;;;14.38;11.35;;;;;;;;;;4920621;29;20028;-69
2023/01/30 00:11:21;;;;;;;14.18;10.52;;;;;;;;;;4904753;29;20123;-69
2023/01/30 00:13:47;;;;;;;14.85;11.10;;;;;;;;;;4920465;29;20028;-67
2023/01/30 00:16:13;;;;;;;16.33;11.52;;;;;;;;;;4920386;29;20024;-66
2023/01/30 00:18:39;;;;;;;13.82;10.38;;;;;;;;;;4937849;29;20346;-66
2023/01/30 00:21:06;;;;;;;15.13;11.32;;;;;;;;;;4926448;29;20030;-70
2023/01/30 00:23:32;;;;;;;16.27;13.02;;;;;;;;;;4918429;29;20032;-70
2023/01/30 00:25:58;;;;;;;14.20;10.63;;;;;;;;;;4918475;29;20032;-70
2023/01/30 00:28:23;;;;;;;13.63;9.85;;;;;;;;;;4918099;29;20135;-69
2023/01/30 00:30:49;;;;;;;12.43;9.70;;;;;;;;;;4901979;29;20031;-68
2023/01/30 00:33:15;;;;;;;14.35;10.63;;;;;;;;;;4901271;29;20036;-68
2023/01/30 00:35:47;;;;;;;16.98;10.75;;;;;;;;;;4902187;29;20044;-67
2023/01/30 00:38:12;;;;;;;15.15;10.68;;;;;;;;;;4901415;29;20040;-64
2023/01/30 00:40:39;;;;;;;14.50;10.75;;;;;;;;;;4901509;29;20036;-67
2023/01/30 00:48:36;;;;;;;11.20;8.65;;;;;;;;;;4917226;29;20047;-69
2023/01/30 00:51:02;;;;;;;14.63;10.77;;;;;;;;;;4917884;29;20025;-69
2023/01/30 00:53:27;;;;;;;14.40;11.52;;;;;;;;;;4885611;29;20024;-70
2023/01/30 00:55:55;;;;;;;11.85;9.43;;;;;;;;;;4918029;29;20036;-71
2023/01/30 00:58:20;;;;;;;11.88;9.57;;;;;;;;;;4901123;29;20028;-71
2023/01/30 01:00:46;;;;;;;11.43;9.40;;;;;;;;;;4900594;29;20031;-71
2023/01/30 01:03:11;;;;;;;12.63;10.30;;;;;;;;;;4895707;29;20067;-70
2023/01/30 01:05:37;;;;;;;13.48;10.07;;;;;;;;;;4917990;29;20026;-70
2023/01/30 01:08:03;;;;;;;12.43;10.05;;;;;;;;;;4895969;29;20400;-70
2023/01/30 01:10:28;;;;;;;13.75;10.32;;;;;;;;;;4906647;29;20016;-69
2023/01/30 01:12:54;;;;;;;11.10;8.73;;;;;;;;;;4920301;29;20027;-69
2023/01/30 01:15:21;;;;;;;15.02;10.38;;;;;;;;;;4937054;29;20037;-70
2023/01/30 01:17:47;;;;;;;13.30;10.23;;;;;;;;;;4931273;29;20032;-70
2023/01/30 01:20:13;;;;;;;17.55;12.38;;;;;;;;;;4900475;29;20038;-70
2023/01/30 01:22:39;;;;;;;12.63;9.40;;;;;;;;;;4900516;29;20497;-70
2023/01/30 01:25:04;;;;;;;15.45;11.63;;;;;;;;;;4900448;29;20031;-71
2023/01/30 01:27:30;;;;;;;11.70;9.45;;;;;;;;;;4900267;29;20035;-71
2023/01/30 01:29:56;;;;;;;11.48;9.10;;;;;;;;;;4917451;29;20381;-71
2023/01/30 01:32:21;;;;;;;14.55;10.63;;;;;;;;;;4901407;29;20440;-71
2023/01/30 01:34:46;;;;;;;11.50;9.35;;;;;;;;;;4900680;29;20112;-70
2023/01/30 01:37:12;;;;;;;11.70;9.02;;;;;;;;;;4900441;29;20127;-71
2023/01/30 01:42:23;;;;;;;15.32;11.27;;;;;;;;;;4900860;29;20059;-70
2023/01/30 01:45:07;;;;;;;13.95;9.73;;;;;;;;;;4917168;29;20528;-70
2023/01/30 01:47:33;;;;;;;10.88;8.60;;;;;;;;;;4916958;29;20040;-70
2023/01/30 01:49:58;;;;;;;13.35;9.15;;;;;;;;;;4917393;29;20036;-70
2023/01/30 01:52:24;;;;;;;10.63;8.95;;;;;;;;;;4900414;29;20032;-70
2023/01/30 01:54:58;;;;;;;8.98;7.28;;;;;;;;;;4917497;29;20087;-70
2023/01/30 02:00:41;;;;;;;8.02;6.07;;;;;;;;;;4914557;29;20058;-69
2023/01/30 02:03:13;;;;;;;6.05;5.47;;;;;;;;;;4904798;29;20429;-68
2023/01/30 02:05:47;;;;;;;8.25;6.47;;;;;;;;;;4904367;29;20060;-68
2023/01/30 02:08:21;;;;;;;5.70;5.20;;;;;;;;;;4904402;29;20036;-69
2023/01/30 02:10:52;;;;;;;4.63;4.18;;;;;;;;;;4921607;29;20051;-67
2023/01/30 02:13:18;;;;;;;6.18;5.45;;;;;;;;;;4920677;29;20028;-68
2023/01/30 02:15:45;;;;;;;6.47;5.90;;;;;;;;;;4904228;29;20427;-65
2023/01/30 02:18:13;;;;;;;6.60;5.82;;;;;;;;;;4903664;29;20036;-66
2023/01/30 02:20:57;;;;;;;6.63;5.57;;;;;;;;;;4904358;29;20058;-68
2023/01/30 02:23:41;;;;;;;7.53;6.68;;;;;;;;;;4925270;23;20113;-71
2023/01/30 02:26:23;;;;;;;7.10;6.40;;;;;;;;;;4900737;29;20048;-70
2023/01/30 02:28:48;;;;;;;6.90;6.28;;;;;;;;;;4901546;29;20044;-68
2023/01/30 02:31:23;;;;;;;6.72;6.10;;;;;;;;;;4921053;29;20469;-67
2023/01/30 02:34:07;;;;;;;7.47;6.70;;;;;;;;;;4904109;29;20036;-67
2023/01/30 02:36:50;;;;;;;6.53;5.80;;;;;;;;;;4920768;29;20032;-67
2023/01/30 02:39:22;;;;;;;7.22;5.75;;;;;;;;;;4888062;29;20032;-67
2023/01/30 02:41:59;;;;;;;7.25;5.93;;;;;;;;;;4888110;29;20033;-67
2023/01/30 02:44:34;;;;;;;6.30;5.70;;;;;;;;;;4885258;29;20096;-67
2023/01/30 02:47:09;;;;;;;5.93;5.38;;;;;;;;;;4884389;29;20033;-67
2023/01/30 02:49:38;;;;;;;6.15;5.50;;;;;;;;;;4901211;29;20036;-67
2023/01/30 02:52:06;;;;;;;5.80;5.25;;;;;;;;;;4869276;29;20056;-67
2023/01/30 02:54:32;;;;;;;6.05;5.45;;;;;;;;;;4885297;29;20024;-67
2023/01/30 02:56:58;;;;;;;5.85;5.30;;;;;;;;;;4887552;29;20032;-68
2023/01/30 02:59:29;;;;;;;7.07;5.97;;;;;;;;;;4903630;29;20043;-68
2023/01/30 03:02:04;;;;;;;6.10;5.57;;;;;;;;;;4902947;29;20028;-69
2023/01/30 03:04:55;;;;;;;3.80;2.55;;;;;;;;;;4902847;29;20040;-69
2023/01/30 03:07:47;;;;;;;6.68;5.97;;;;;;;;;;4902716;29;20024;-69
2023/01/30 03:10:22;;;;;;;7.20;6.47;;;;;;;;;;4889379;29;20060;-70
2023/01/30 03:12:57;;;;;;;7.80;7.00;;;;;;;;;;4902206;29;20024;-69
2023/01/30 03:15:32;;;;;;;6.88;5.60;;;;;;;;;;4902639;29;20176;-69
2023/01/30 03:17:59;;;;;;;8.07;7.20;;;;;;;;;;4897229;29;20033;-70
2023/01/30 03:20:25;;;;;;;7.55;6.20;;;;;;;;;;4900952;29;20533;-69
2023/01/30 03:22:52;;;;;;;9.88;6.78;;;;;;;;;;4883712;29;20069;-70
2023/01/30 03:25:20;;;;;;;10.50;7.63;;;;;;;;;;4901139;29;20493;-69
2023/01/30 03:27:47;;;;;;;9.95;6.75;;;;;;;;;;4884054;29;20028;-68
2023/01/30 03:30:12;;;;;;;9.20;6.93;;;;;;;;;;4900823;29;20506;-68
2023/01/30 03:32:39;;;;;;;13.75;7.93;;;;;;;;;;4884011;29;20024;-68
2023/01/30 03:35:08;;;;;;;11.40;8.18;;;;;;;;;;4883985;29;20511;-69
2023/01/30 03:37:34;;;;;;;5.90;4.63;;;;;;;;;;4884194;29;20036;-68
2023/01/30 03:39:59;;;;;;;7.18;6.45;;;;;;;;;;4884161;29;20037;-69
2023/01/30 03:42:25;;;;;;;10.15;7.38;;;;;;;;;;4916717;29;20040;-69
2023/01/30 03:44:52;;;;;;;6.00;4.97;;;;;;;;;;4902647;29;20032;-69
2023/01/30 03:47:17;;;;;;;9.57;6.95;;;;;;;;;;4902575;29;20028;-69
2023/01/30 03:49:45;;;;;;;7.60;5.90;;;;;;;;;;4902708;29;20083;-68
2023/01/30 03:52:10;;;;;;;8.00;6.25;;;;;;;;;;4901958;29;20055;-67
2023/01/30 03:54:36;;;;;;;11.52;6.93;;;;;;;;;;4902027;29;20079;-68
2023/01/30 03:57:02;;;;;;;6.53;5.82;;;;;;;;;;4898867;29;20119;-68
2023/01/30 03:59:28;;;;;;;8.07;6.20;;;;;;;;;;4867548;29;20052;-68
2023/01/30 04:02:01;;;;;;;7.07;6.20;;;;;;;;;;4873349;29;20413;-70
2023/01/30 04:04:27;;;;;;;7.18;5.70;;;;;;;;;;4883072;29;20025;-69
2023/01/30 04:06:54;;;;;;;7.68;5.70;;;;;;;;;;4883002;29;20032;-69
2023/01/30 04:09:19;;;;;;;8.88;6.82;;;;;;;;;;4900080;29;20024;-69
2023/01/30 04:11:48;;;;;;;7.70;6.75;;;;;;;;;;4883575;29;20033;-69
2023/01/30 04:14:14;;;;;;;5.75;5.15;;;;;;;;;;4883253;29;20020;-67
2023/01/30 04:17:02;;;;;;;6.25;5.65;;;;;;;;;;4913662;23;20063;-66
2023/01/30 04:19:43;;;;;;;7.47;5.82;;;;;;;;;;4906569;29;20027;-66
2023/01/30 04:22:11;;;;;;;7.20;5.75;;;;;;;;;;4920747;29;20035;-65
2023/01/30 04:24:36;;;;;;;5.70;5.18;;;;;;;;;;4920149;29;20039;-65
2023/01/30 04:27:02;;;;;;;5.97;5.35;;;;;;;;;;4893074;23;20057;-66
2023/01/30 04:29:53;;;;;;;6.43;5.63;;;;;;;;;;4913424;23;20474;-70
2023/01/30 04:32:20;;;;;;;6.85;6.18;;;;;;;;;;4877101;29;20049;-69
2023/01/30 04:34:47;;;;;;;1.33;1.25;;;;;;;;;;4864682;29;20033;-70
2023/01/30 04:37:12;;;;;;;5.53;4.50;;;;;;;;;;4864097;29;20029;-70
2023/01/30 04:39:38;;;;;;;5.97;5.38;;;;;;;;;;4848906;29;20485;-69
2023/01/30 04:42:04;;;;;;;7.32;5.25;;;;;;;;;;4880611;29;20053;-69
2023/01/30 04:44:36;;;;;;;3.92;3.47;;;;;;;;;;4863772;29;20482;-69
2023/01/30 04:47:09;;;;;;;5.95;5.40;;;;;;;;;;4863183;29;20434;-70
2023/01/30 04:49:34;;;;;;;5.65;5.10;;;;;;;;;;4848201;29;20067;-71
2023/01/30 04:52:02;;;;;;;6.68;5.30;;;;;;;;;;4863741;29;20021;-69
2023/01/30 04:54:28;;;;;;;5.53;5.00;;;;;;;;;;4880458;29;20036;-69
2023/01/30 04:56:54;;;;;;;6.15;5.18;;;;;;;;;;4848858;29;20025;-70
2023/01/30 04:59:21;;;;;;;5.63;5.07;;;;;;;;;;4880473;29;20059;-70
2023/01/30 05:01:48;;;;;;;4.45;4.05;;;;;;;;;;4863864;29;20071;-69
2023/01/30 05:04:13;;;;;;;4.50;4.10;;;;;;;;;;4880480;29;20060;-69
2023/01/30 05:06:39;;;;;;;3.60;3.30;;;;;;;;;;4880107;29;20101;-68
2023/01/30 05:09:04;;;;;;;4.18;3.78;;;;;;;;;;4880347;29;20072;-68
2023/01/30 05:11:31;;;;;;;5.55;4.93;;;;;;;;;;4863671;29;20029;-70
2023/01/30 05:13:56;;;;;;;4.88;4.35;;;;;;;;;;4864112;29;20029;-70
2023/01/30 05:16:22;;;;;;;4.97;4.43;;;;;;;;;;4863292;29;20053;-70
2023/01/30 05:18:48;;;;;;;5.95;5.30;;;;;;;;;;4880614;29;20107;-71
2023/01/30 05:21:14;;;;;;;4.63;4.22;;;;;;;;;;4880042;29;20402;-67
2023/01/30 05:23:40;;;;;;;5.25;4.75;;;;;;;;;;4880481;29;20054;-68
2023/01/30 05:26:05;;;;;;;3.85;3.45;;;;;;;;;;4880096;29;20036;-68
2023/01/30 05:28:34;;;;;;;1.98;1.85;;;;;;;;;;4863322;29;20029;-69
2023/01/30 05:31:02;;;;;;;5.57;5.05;;;;;;;;;;4860147;29;20053;-70
2023/01/30 05:33:27;;;;;;;6.00;5.40;;;;;;;;;;4861785;29;20431;-69
2023/01/30 05:35:54;;;;;;;5.90;4.40;;;;;;;;;;4861091;29;20109;-69
2023/01/30 05:38:21;;;;;;;5.97;5.38;;;;;;;;;;4861251;29;20041;-69
2023/01/30 05:40:46;;;;;;;7.13;5.97;;;;;;;;;;4860888;29;20048;-69
2023/01/30 05:43:11;;;;;;;6.35;5.72;;;;;;;;;;4857503;29;20481;-69
2023/01/30 05:45:37;;;;;;;4.75;4.30;;;;;;;;;;4875002;29;20034;-68
2023/01/30 05:48:02;;;;;;;5.07;4.65;;;;;;;;;;4860283;29;20546;-68
2023/01/30 05:50:28;;;;;;;5.45;4.90;;;;;;;;;;4858071;29;20113;-68
2023/01/30 05:52:54;;;;;;;3.05;2.80;;;;;;;;;;4857590;29;20504;-69
2023/01/30 05:55:19;;;;;;;6.55;5.93;;;;;;;;;;4859044;29;20061;-69
2023/01/30 05:57:45;;;;;;;5.80;5.13;;;;;;;;;;4857166;29;20048;-68
2023/01/30 06:00:11;;;;;;;6.85;5.55;;;;;;;;;;4857723;29;20025;-69
2023/01/30 06:02:40;;;;;;;7.10;6.38;;;;;;;;;;4860919;29;20037;-70
2023/01/30 06:05:05;;;;;;;6.40;5.80;;;;;;;;;;4859988;29;20037;-71
2023/01/30 06:07:40;;;;;;;8.23;6.70;;;;;;;;;;4849260;29;20439;-68
2023/01/30 06:10:05;;;;;;;4.95;4.38;;;;;;;;;;4862752;29;20029;-66
2023/01/30 06:12:31;;;;;;;7.07;6.45;;;;;;;;;;4878073;29;20410;-66
2023/01/30 06:14:57;;;;;;;7.03;6.40;;;;;;;;;;4878203;29;20088;-68
2023/01/30 06:17:22;;;;;;;5.82;5.22;;;;;;;;;;4878877;29;20037;-66
2023/01/30 06:19:47;;;;;;;5.32;4.63;;;;;;;;;;4878983;29;20116;-67
2023/01/30 06:22:14;;;;;;;7.72;6.55;;;;;;;;;;4877600;29;20033;-66
2023/01/30 06:24:39;;;;;;;7.47;6.25;;;;;;;;;;4873578;29;20030;-66
2023/01/30 06:27:06;;;;;;;6.63;5.97;;;;;;;;;;4858845;29;20033;-66
2023/01/30 06:29:31;;;;;;;8.00;6.68;;;;;;;;;;4858964;29;20030;-66
2023/01/30 06:31:57;;;;;;;7.82;6.15;;;;;;;;;;4876196;29;20490;-66
2023/01/30 06:34:22;;;;;;;7.10;5.15;;;;;;;;;;4862841;29;20045;-66
2023/01/30 06:36:47;;;;;;;13.02;9.80;;;;;;;;;;4880154;29;20045;-66
2023/01/30 06:39:13;;;;;;;7.55;6.72;;;;;;;;;;4880582;29;20533;-70
2023/01/30 06:41:38;;;;;;;7.60;6.85;;;;;;;;;;4880080;29;20033;-69
2023/01/30 06:44:03;;;;;;;6.75;6.03;;;;;;;;;;4863041;29;20037;-68
2023/01/30 06:46:30;;;;;;;5.38;4.28;;;;;;;;;;4863038;29;20120;-69
2023/01/30 06:48:55;;;;;;;7.38;6.13;;;;;;;;;;4883081;29;20029;-68
2023/01/30 06:51:21;;;;;;;6.78;6.07;;;;;;;;;;4883022;29;20040;-69
2023/01/30 06:53:46;;;;;;;8.55;7.40;;;;;;;;;;4882535;29;20017;-69
2023/01/30 06:56:13;;;;;;;4.63;4.00;;;;;;;;;;4882699;29;20116;-69
2023/01/30 06:58:39;;;;;;;4.32;3.50;;;;;;;;;;4866170;29;20037;-69
2023/01/30 07:01:04;;;;;;;8.05;6.20;;;;;;;;;;4880991;29;20048;-67
2023/01/30 07:03:30;;;;;;;7.20;6.20;;;;;;;;;;4880677;29;20112;-67
2023/01/30 07:05:55;;;;;;;8.02;5.80;;;;;;;;;;4880512;29;20035;-67
2023/01/30 07:08:20;;;;;;;8.20;6.45;;;;;;;;;;4880385;29;20355;-66
2023/01/30 07:10:46;;;;;;;10.32;8.55;;;;;;;;;;4863803;29;20040;-67
2023/01/30 07:13:11;;;;;;;3.50;2.33;;;;;;;;;;4880450;29;20021;-67
2023/01/30 07:15:37;;;;;;;9.27;6.75;;;;;;;;;;4881236;29;20044;-67
2023/01/30 07:18:02;;;;;;;12.23;7.10;;;;;;;;;;4865414;29;20040;-67
2023/01/30 07:20:30;;;;;;;14.70;9.98;;;;;;;;;;4882057;29;20041;-66
2023/01/30 07:22:55;;;;;;;12.57;8.43;;;;;;;;;;4882003;29;20108;-66
2023/01/30 07:25:21;;;;;;;15.02;9.95;;;;;;;;;;4881925;29;20136;-66
2023/01/30 07:27:58;;;;;;;11.63;8.05;;;;;;;;;;4865324;29;20041;-66
2023/01/30 07:30:23;;;;;;;7.95;6.13;;;;;;;;;;4881761;29;20378;-66
2023/01/30 07:32:53;;;;;;;12.05;7.57;;;;;;;;;;4865112;29;20039;-66
2023/01/30 07:35:19;;;;;;;15.90;10.48;;;;;;;;;;4865012;29;20033;-66
2023/01/30 07:37:46;;;;;;;15.73;8.02;;;;;;;;;;4881905;29;20036;-66
2023/01/30 07:40:11;;;;;;;16.73;9.23;;;;;;;;;;4881680;29;20048;-66
2023/01/30 07:42:38;;;;;;;8.50;6.47;;;;;;;;;;4881770;29;20044;-66
2023/01/30 07:45:03;;;;;;;13.45;8.35;;;;;;;;;;4881579;29;20033;-66
2023/01/30 07:47:29;;;;;;;9.10;7.00;;;;;;;;;;4881577;29;20043;-66
2023/01/30 07:49:55;;;;;;;10.93;8.48;;;;;;;;;;4881626;29;20390;-66
2023/01/30 07:52:21;;;;;;;7.97;5.93;;;;;;;;;;4881392;29;20115;-67
2023/01/30 07:54:46;;;;;;;20.17;12.68;;;;;;;;;;4864696;29;20029;-66
2023/01/30 07:57:11;;;;;;;19.75;13.23;;;;;;;;;;4924278;23;20075;-67
2023/01/30 07:59:36;;;;;;;15.50;10.13;;;;;;;;;;4920798;29;20024;-66
2023/01/30 08:02:02;;;;;;;15.85;10.35;;;;;;;;;;4937846;29;20042;-66
2023/01/30 08:04:27;;;;;;;15.60;10.57;;;;;;;;;;4937793;29;20465;-66
2023/01/30 08:06:53;;;;;;;8.95;7.65;;;;;;;;;;4937637;29;20028;-66
2023/01/30 08:09:19;;;;;;;11.50;8.98;;;;;;;;;;4920657;29;20030;-66
2023/01/30 08:11:44;;;;;;;6.40;4.97;;;;;;;;;;4937896;29;20036;-66
2023/01/30 08:14:09;;;;;;;4.45;2.92;;;;;;;;;;4920850;29;20067;-66
2023/01/30 08:16:35;;;;;;;8.18;5.20;;;;;;;;;;4920627;29;20027;-67
2023/01/30 08:19:02;;;;;;;10.73;7.15;;;;;;;;;;4920486;29;20407;-66
2023/01/30 08:21:28;;;;;;;6.35;4.32;;;;;;;;;;4920143;29;20032;-66
2023/01/30 08:23:53;;;;;;;8.63;6.60;;;;;;;;;;4937477;29;20078;-66
2023/01/30 08:26:19;;;;;;;12.02;8.30;;;;;;;;;;4937444;29;20031;-65
2023/01/30 08:28:44;;;;;;;9.45;7.25;;;;;;;;;;4937235;29;20040;-65
2023/01/30 08:31:10;;;;;;;13.45;8.48;;;;;;;;;;4920384;29;20042;-66
2023/01/30 08:33:35;;;;;;;9.93;8.23;;;;;;;;;;4937279;29;20136;-66
2023/01/30 08:36:01;;;;;;;3.22;2.85;;;;;;;;;;4937239;29;20039;-66
2023/01/30 08:38:26;;;;;;;9.20;6.72;;;;;;;;;;4920122;29;20419;-65
2023/01/30 08:40:55;;;;;;;9.25;6.25;;;;;;;;;;4937304;29;20027;-66
2023/01/30 08:43:21;;;;;;;7.97;6.07;;;;;;;;;;4937247;29;20188;-66
2023/01/30 08:45:47;;;;;;;8.95;7.35;;;;;;;;;;4920070;29;20032;-66
2023/01/30 08:48:13;;;;;;;9.75;6.43;;;;;;;;;;4936992;29;20031;-66
2023/01/30 08:50:39;;;;;;;8.45;6.25;;;;;;;;;;4936992;29;20023;-66
2023/01/30 08:53:06;;;;;;;8.05;5.90;;;;;;;;;;4919803;29;20051;-66
2023/01/30 08:55:31;;;;;;;7.97;6.57;;;;;;;;;;4919762;29;20027;-66
2023/01/30 08:57:56;;;;;;;4.97;4.47;;;;;;;;;;4936779;29;20040;-65
2023/01/30 09:00:22;;;;;;;11.15;7.22;;;;;;;;;;4936790;29;20567;-66
2023/01/30 09:02:47;;;;;;;7.78;6.45;;;;;;;;;;4919652;29;20031;-66
2023/01/30 09:05:12;;;;;;;5.65;4.93;;;;;;;;;;4919667;29;20036;-66
2023/01/30 09:07:37;;;;;;;9.93;6.22;;;;;;;;;;4919749;29;20043;-65
2023/01/30 09:10:03;;;;;;;8.95;6.57;;;;;;;;;;4936297;29;20023;-66
2023/01/30 09:12:29;;;;;;;8.65;7.10;;;;;;;;;;4937142;29;20357;-66
2023/01/30 09:14:56;;;;;;;4.80;3.63;;;;;;;;;;4938104;29;20023;-66
2023/01/30 09:17:22;;;;;;;9.52;7.00;;;;;;;;;;4930043;23;20073;-68
2023/01/30 09:19:48;;;;;;;7.53;6.30;;;;;;;;;;4941947;23;23095;-66
2023/01/30 09:22:13;;;;;;;8.27;7.15;;;;;;;;;;4917519;29;20028;-66
2023/01/30 09:24:38;;;;;;;8.93;6.28;;;;;;;;;;4900714;29;20046;-66
2023/01/30 09:27:04;;;;;;;7.45;6.65;;;;;;;;;;4917387;29;20050;-66
2023/01/30 09:29:29;;;;;;;9.02;5.95;;;;;;;;;;4925165;23;20187;-69
2023/01/30 09:31:55;;;;;;;10.07;7.18;;;;;;;;;;4950841;23;20059;-66
2023/01/30 09:34:26;;;;;;;7.57;6.70;;;;;;;;;;4935785;29;20038;-66
2023/01/30 09:36:52;;;;;;;7.90;6.13;;;;;;;;;;4936378;29;20035;-67
2023/01/30 09:39:18;;;;;;;8.45;5.72;;;;;;;;;;4919192;29;20039;-67
2023/01/30 09:41:49;;;;;;;5.05;3.83;;;;;;;;;;4936274;29;20047;-66
2023/01/30 09:44:31;;;;;;;7.38;5.97;;;;;;;;;;4936343;29;20028;-66
2023/01/30 09:47:13;;;;;;;7.25;6.55;;;;;;;;;;4936225;29;20466;-66
2023/01/30 09:49:45;;;;;;;7.18;5.97;;;;;;;;;;4936200;29;20091;-66
2023/01/30 09:52:19;;;;;;;6.30;5.68;;;;;;;;;;4936218;29;20032;-66
2023/01/30 09:54:45;;;;;;;10.65;8.88;;;;;;;;;;4936229;29;20540;-67
2023/01/30 09:57:15;;;;;;;9.65;7.43;;;;;;;;;;4919171;29;20067;-65
2023/01/30 09:59:53;;;;;;;9.50;8.13;;;;;;;;;;4919116;29;20031;-66
2023/01/30 10:02:35;;;;;;;9.15;7.80;;;;;;;;;;4918982;29;20166;-66
2023/01/30 10:05:02;;;;;;;7.55;6.78;;;;;;;;;;4919010;29;20095;-66
2023/01/30 10:07:33;;;;;;;8.70;6.40;;;;;;;;;;4919432;29;20087;-66
2023/01/30 10:10:02;;;;;;;7.57;6.63;;;;;;;;;;4936115;29;20095;-66
2023/01/30 10:12:32;;;;;;;8.25;7.40;;;;;;;;;;4936001;29;20123;-66
2023/01/30 10:15:19;;;;;;;10.98;8.40;;;;;;;;;;4936080;29;20543;-66
2023/01/30 10:18:03;;;;;;;7.25;6.55;;;;;;;;;;4919029;29;20118;-66
2023/01/30 10:20:33;;;;;;;7.20;6.47;;;;;;;;;;4935974;29;20036;-66
2023/01/30 10:23:17;;;;;;;6.13;5.57;;;;;;;;;;4938395;29;20480;-67
2023/01/30 10:25:47;;;;;;;7.78;6.97;;;;;;;;;;4922646;29;20039;-66
2023/01/30 10:28:21;;;;;;;1.92;1.83;;;;;;;;;;4939531;29;20469;-68
2023/01/30 10:30:48;;;;;;;9.07;7.50;;;;;;;;;;4939541;29;20036;-67
2023/01/30 10:33:23;;;;;;;9.65;8.40;;;;;;;;;;4922485;29;20456;-66
2023/01/30 10:35:56;;;;;;;8.70;7.05;;;;;;;;;;4922496;29;20034;-70
2023/01/30 10:38:28;;;;;;;9.07;7.35;;;;;;;;;;4941140;29;20038;-70
2023/01/30 10:40:58;;;;;;;6.75;5.75;;;;;;;;;;4923659;29;20544;-70
2023/01/30 10:43:30;;;;;;;10.88;8.25;;;;;;;;;;4941879;29;20038;-70
2023/01/30 10:46:12;;;;;;;10.32;7.57;;;;;;;;;;4941369;29;20043;-70
2023/01/30 10:48:48;;;;;;;8.27;7.50;;;;;;;;;;4939538;29;20066;-70
2023/01/30 10:51:24;;;;;;;8.88;6.95;;;;;;;;;;4922113;29;20031;-69
2023/01/30 10:54:12;;;;;;;3.38;3.08;;;;;;;;;;4939219;29;20075;-68
2023/01/30 10:56:40;;;;;;;9.88;6.25;;;;;;;;;;4938887;29;20063;-69
2023/01/30 10:59:15;;;;;;;7.65;5.65;;;;;;;;;;4906339;29;20028;-69
2023/01/30 11:01:43;;;;;;;8.57;5.97;;;;;;;;;;4938988;29;20028;-69
2023/01/30 11:04:30;;;;;;;10.05;8.32;;;;;;;;;;4938949;29;20028;-69
2023/01/30 11:06:56;;;;;;;10.30;6.88;;;;;;;;;;4938664;29;20408;-69
2023/01/30 11:09:21;;;;;;;9.73;7.38;;;;;;;;;;4921725;29;20052;-69
2023/01/30 11:11:53;;;;;;;6.15;5.43;;;;;;;;;;4921820;29;20032;-66
2023/01/30 11:14:21;;;;;;;10.98;7.72;;;;;;;;;;4938905;29;20024;-68
2023/01/30 11:16:46;;;;;;;9.45;8.38;;;;;;;;;;4938902;29;20020;-65
2023/01/30 11:19:12;;;;;;;3.85;3.15;;;;;;;;;;4938551;29;20396;-66
2023/01/30 11:21:41;;;;;;;9.55;7.47;;;;;;;;;;4938734;29;20020;-65
2023/01/30 11:24:21;;;;;;;11.57;9.27;;;;;;;;;;4938572;29;20032;-66
2023/01/30 11:26:47;;;;;;;5.20;4.15;;;;;;;;;;4938477;29;20062;-66
2023/01/30 11:29:24;;;;;;;13.23;8.63;;;;;;;;;;4938465;29;20472;-66
2023/01/30 11:31:49;;;;;;;8.80;7.90;;;;;;;;;;4905634;29;20122;-66
2023/01/30 11:34:16;;;;;;;9.85;7.60;;;;;;;;;;4937872;29;20171;-65
2023/01/30 11:36:42;;;;;;;10.18;7.53;;;;;;;;;;4938372;29;20027;-66
2023/01/30 11:39:10;;;;;;;8.52;7.60;;;;;;;;;;4938291;29;20040;-65
2023/01/30 11:41:36;;;;;;;11.35;8.48;;;;;;;;;;4938616;29;20079;-65
2023/01/30 11:44:04;;;;;;;5.57;3.97;;;;;;;;;;4937983;29;20035;-66
2023/01/30 11:46:32;;;;;;;5.15;4.65;;;;;;;;;;4938148;29;20043;-66
2023/01/30 11:49:00;;;;;;;7.90;6.85;;;;;;;;;;4929906;23;20060;-66
2023/01/30 11:51:26;;;;;;;8.32;7.13;;;;;;;;;;4920995;29;20035;-68
2023/01/30 11:54:10;;;;;;;10.27;8.85;;;;;;;;;;4938073;29;20028;-68
2023/01/30 11:56:51;;;;;;;10.73;8.88;;;;;;;;;;4920981;29;20023;-68
2023/01/30 11:59:26;;;;;;;7.57;6.80;;;;;;;;;;4921264;29;20055;-69
2023/01/30 12:02:01;;;;;;;9.65;7.68;;;;;;;;;;4938186;29;20036;-68
2023/01/30 12:04:55;;;;;;;9.38;7.40;;;;;;;;;;4940993;23;22456;-68
2023/01/30 12:07:24;;;;;;;10.35;8.13;;;;;;;;;;4898321;29;20060;-66
2023/01/30 12:09:50;;;;;;;12.10;8.70;;;;;;;;;;4900504;29;20024;-66
2023/01/30 12:12:25;;;;;;;9.23;7.63;;;;;;;;;;4883382;29;20033;-66
2023/01/30 12:14:51;;;;;;;10.05;7.40;;;;;;;;;;4899818;29;20500;-67
2023/01/30 12:17:32;;;;;;;7.55;6.80;;;;;;;;;;4898521;29;20123;-66
2023/01/30 12:19:57;;;;;;;10.40;7.95;;;;;;;;;;4898490;29;20131;-66
2023/01/30 12:22:32;;;;;;;9.13;7.97;;;;;;;;;;4882880;29;20057;-66
2023/01/30 12:24:59;;;;;;;9.23;7.35;;;;;;;;;;4899645;29;20036;-66
2023/01/30 12:27:34;;;;;;;10.68;8.68;;;;;;;;;;4899783;29;20127;-66
2023/01/30 12:30:03;;;;;;;8.77;6.63;;;;;;;;;;4900384;29;20033;-67
2023/01/30 12:32:30;;;;;;;9.73;8.10;;;;;;;;;;4885491;29;20032;-67
2023/01/30 12:34:56;;;;;;;8.02;7.05;;;;;;;;;;4884761;29;20072;-67
2023/01/30 12:37:27;;;;;;;8.43;7.45;;;;;;;;;;4899962;29;20036;-67
2023/01/30 12:40:04;;;;;;;9.15;7.88;;;;;;;;;;4899755;29;20485;-67
2023/01/30 12:42:47;;;;;;;9.20;7.25;;;;;;;;;;4899625;29;20574;-66
2023/01/30 12:45:12;;;;;;;7.30;6.28;;;;;;;;;;4898864;29;20049;-65
2023/01/30 12:47:56;;;;;;;7.45;5.85;;;;;;;;;;4899454;29;20036;-67
2023/01/30 12:50:54;;;;;;;8.27;5.85;;;;;;;;;;4899197;29;20028;-66
2023/01/30 12:53:38;;;;;;;8.73;7.75;;;;;;;;;;4851942;29;20497;-66
2023/01/30 12:56:08;;;;;;;6.32;5.70;;;;;;;;;;4898236;29;20028;-66
2023/01/30 12:58:53;;;;;;;6.63;5.68;;;;;;;;;;4897838;29;20047;-66
2023/01/30 13:01:23;;;;;;;9.05;7.40;;;;;;;;;;4882604;29;20032;-66
2023/01/30 13:04:07;;;;;;;7.32;4.85;;;;;;;;;;4897751;29;20036;-66
2023/01/30 13:06:57;;;;;;;7.40;6.40;;;;;;;;;;4897751;29;20059;-66
2023/01/30 13:09:25;;;;;;;9.93;7.55;;;;;;;;;;4898872;29;20401;-66
2023/01/30 13:12:02;;;;;;;9.57;7.55;;;;;;;;;;4899152;29;20112;-66
2023/01/30 13:14:35;;;;;;;9.85;8.43;;;;;;;;;;4898849;29;20073;-66
2023/01/30 13:17:04;;;;;;;7.13;6.40;;;;;;;;;;4897564;29;20032;-66
2023/01/30 13:19:41;;;;;;;8.43;7.05;;;;;;;;;;4898722;29;20028;-66
2023/01/30 13:22:25;;;;;;;8.60;7.55;;;;;;;;;;4881999;29;20047;-65
2023/01/30 13:25:07;;;;;;;11.38;7.82;;;;;;;;;;4899207;29;20043;-66
2023/01/30 13:27:36;;;;;;;7.40;6.28;;;;;;;;;;4898774;29;20037;-65
2023/01/30 13:30:04;;;;;;;7.50;6.32;;;;;;;;;;4898649;29;20429;-65
2023/01/30 13:32:37;;;;;;;6.53;5.43;;;;;;;;;;4881790;29;20033;-65
2023/01/30 13:35:05;;;;;;;9.63;7.40;;;;;;;;;;4882126;29;20036;-65
2023/01/30 13:37:31;;;;;;;8.82;7.53;;;;;;;;;;4897266;29;20068;-66
2023/01/30 13:40:01;;;;;;;8.57;7.22;;;;;;;;;;4898494;29;20043;-66
2023/01/30 13:42:40;;;;;;;7.47;6.13;;;;;;;;;;4898482;29;20029;-66
2023/01/30 13:45:08;;;;;;;6.05;5.25;;;;;;;;;;4881622;29;20041;-66
2023/01/30 13:47:38;;;;;;;8.63;6.22;;;;;;;;;;4898586;29;20087;-66
2023/01/30 13:50:22;;;;;;;7.38;5.60;;;;;;;;;;4898713;29;20044;-66
2023/01/30 13:52:58;;;;;;;10.43;7.88;;;;;;;;;;4898659;29;20549;-65
2023/01/30 13:55:43;;;;;;;8.88;6.40;;;;;;;;;;4898393;29;20020;-66
2023/01/30 13:58:11;;;;;;;9.88;6.93;;;;;;;;;;4902814;29;20040;-65
2023/01/30 14:00:37;;;;;;;9.40;7.68;;;;;;;;;;4902497;29;20041;-65
2023/01/30 14:03:02;;;;;;;9.32;6.95;;;;;;;;;;4902199;29;20044;-66
2023/01/30 14:05:46;;;;;;;7.43;6.43;;;;;;;;;;4902414;29;20092;-65
2023/01/30 14:08:16;;;;;;;7.97;6.43;;;;;;;;;;4900984;29;20041;-65
2023/01/30 14:10:41;;;;;;;9.90;7.65;;;;;;;;;;4885291;29;20486;-65
2023/01/30 14:13:07;;;;;;;8.77;7.60;;;;;;;;;;4885098;29;20128;-64
2023/01/30 14:15:32;;;;;;;7.20;6.45;;;;;;;;;;4901952;29;20036;-65
2023/01/30 14:18:05;;;;;;;9.45;7.32;;;;;;;;;;4900682;29;20485;-65
2023/01/30 14:20:32;;;;;;;10.35;7.28;;;;;;;;;;4935227;23;20047;-65
2023/01/30 14:22:59;;;;;;;13.75;8.90;;;;;;;;;;4939989;29;20103;-65
2023/01/30 14:25:25;;;;;;;7.13;6.13;;;;;;;;;;4939697;29;20115;-65
2023/01/30 14:27:51;;;;;;;11.43;8.85;;;;;;;;;;4906733;29;20130;-65
2023/01/30 14:30:36;;;;;;;10.68;7.70;;;;;;;;;;4939668;29;20491;-65
2023/01/30 14:33:02;;;;;;;10.98;8.15;;;;;;;;;;4931528;23;20493;-69
2023/01/30 14:35:29;;;;;;;12.27;9.38;;;;;;;;;;4907809;29;20338;-69
2023/01/30 14:38:10;;;;;;;7.38;5.88;;;;;;;;;;4922225;29;20036;-69
2023/01/30 14:40:39;;;;;;;13.57;9.07;;;;;;;;;;4921801;29;20480;-69
2023/01/30 14:43:11;;;;;;;11.30;7.65;;;;;;;;;;4939011;29;20050;-69
2023/01/30 14:45:50;;;;;;;10.35;7.93;;;;;;;;;;4938926;29;20028;-69
2023/01/30 14:48:34;;;;;;;9.60;8.50;;;;;;;;;;4939212;29;20084;-69
2023/01/30 14:51:29;;;;;;;13.10;9.25;;;;;;;;;;4939320;29;20035;-69
2023/01/30 14:54:13;;;;;;;10.40;7.38;;;;;;;;;;4904223;29;20036;-69
2023/01/30 14:56:57;;;;;;;8.82;7.65;;;;;;;;;;4922092;29;20036;-71
2023/01/30 14:59:25;;;;;;;11.60;8.82;;;;;;;;;;4938823;29;20091;-71
2023/01/30 15:01:54;;;;;;;13.82;8.65;;;;;;;;;;4938961;29;20024;-71
2023/01/30 15:04:19;;;;;;;13.82;9.40;;;;;;;;;;4938952;29;20031;-70